createdAt,value
2022-11-20T00:04:53.586Z,17.20
2022-11-20T00:09:56.393Z,12.90
2022-11-20T00:14:59.102Z,12.70
2022-11-20T00:20:02.136Z,10.90
2022-11-20T00:25:05.387Z,15.20
2022-11-20T00:30:12.326Z,11.50
2022-11-20T00:35:18.872Z,15.80
2022-11-20T00:40:21.693Z,13.20
2022-11-20T00:45:24.393Z,14.00
2022-11-20T00:50:27.125Z,13.30
2022-11-20T00:55:29.820Z,18.60
2022-11-20T01:00:32.516Z,12.10
2022-11-20T01:05:36.930Z,12.70
2022-11-20T01:10:39.650Z,9.20
2022-11-20T01:15:42.430Z,18.50
2022-11-20T01:20:45.107Z,15.40
2022-11-20T01:25:47.807Z,13.90
2022-11-20T01:30:50.508Z,11.40
2022-11-20T01:35:53.638Z,14.40
2022-11-20T01:40:56.950Z,17.80
2022-11-20T01:46:07.432Z,14.20
2022-11-20T01:51:40.431Z,14.20
2022-11-20T01:56:45.390Z,10.70
2022-11-20T02:01:48.119Z,10.90
2022-11-20T02:06:52.735Z,16.70
2022-11-20T02:11:56.248Z,14.60
2022-11-20T02:16:59.159Z,16.70
2022-11-20T02:22:48.452Z,12.20
2022-11-20T02:27:52.048Z,9.20
2022-11-20T02:32:54.785Z,16.80
2022-11-20T02:38:01.832Z,12.20
2022-11-20T02:43:04.978Z,14.10
2022-11-20T02:48:08.754Z,14.10
2022-11-20T02:53:11.583Z,10.60
2022-11-20T02:58:14.305Z,19.30
2022-11-20T03:03:17.105Z,17.40
2022-11-20T03:08:19.811Z,12.40
2022-11-20T03:13:22.550Z,13.10
2022-11-20T03:18:25.304Z,11.70
2022-11-20T03:23:30.778Z,18.90
2022-11-20T03:28:33.467Z,18.00
2022-11-20T03:33:36.457Z,12.30
2022-11-20T03:38:40.089Z,14.50
2022-11-20T03:43:42.895Z,11.30
2022-11-20T03:48:51.133Z,19.60
2022-11-20T03:53:57.307Z,17.30
2022-11-20T03:59:00.019Z,13.90
2022-11-20T04:04:03.733Z,12.80
2022-11-20T04:09:07.055Z,15.70
2022-11-20T04:14:15.635Z,18.40
2022-11-20T04:19:18.628Z,15.40
2022-11-20T04:24:21.653Z,13.00
2022-11-20T04:29:24.387Z,16.00
2022-11-20T04:34:27.095Z,14.70
2022-11-20T04:39:29.887Z,19.30
2022-11-20T04:44:32.579Z,14.60
2022-11-20T04:49:35.350Z,13.40
2022-11-20T04:54:38.188Z,16.40
2022-11-20T04:59:40.979Z,19.20
2022-11-20T05:04:44.103Z,17.00
2022-11-20T05:09:46.801Z,10.40
2022-11-20T05:14:49.473Z,13.70
2022-11-20T05:19:53.272Z,15.90
2022-11-20T05:24:56.192Z,14.40
2022-11-20T05:29:58.893Z,17.10
2022-11-20T05:35:01.609Z,9.80
2022-11-20T05:40:05.082Z,13.50
2022-11-20T05:45:08.720Z,16.30
2022-11-20T05:50:11.416Z,17.50
2022-11-20T05:55:14.214Z,15.40
2022-11-20T06:00:17.461Z,13.10
2022-11-20T06:05:20.274Z,14.80
2022-11-20T06:10:22.982Z,16.00
2022-11-20T06:15:26.056Z,16.10
2022-11-20T06:20:28.757Z,17.70
2022-11-20T06:25:31.469Z,13.10
2022-11-20T06:30:34.690Z,15.70
2022-11-20T06:35:37.380Z,16.10
2022-11-20T06:40:43.970Z,20.90
2022-11-20T06:45:46.668Z,21.80
2022-11-20T06:50:49.890Z,15.70
2022-11-20T06:55:53.206Z,10.20
2022-11-20T07:01:00.785Z,14.40
2022-11-20T07:06:05.079Z,14.70
2022-11-20T07:11:08.487Z,23.80
2022-11-20T07:16:11.206Z,17.50
2022-11-20T07:21:14.069Z,15.60
2022-11-20T07:26:17.073Z,16.70
2022-11-20T07:31:19.939Z,17.90
2022-11-20T07:36:22.684Z,26.80
2022-11-20T07:41:25.380Z,22.20
2022-11-20T07:46:28.118Z,11.70
2022-11-20T07:51:31.189Z,19.50
2022-11-20T07:56:33.832Z,17.90
2022-11-20T08:01:36.582Z,23.70
2022-11-20T08:06:39.382Z,24.70
2022-11-20T08:12:01.025Z,22.70
2022-11-20T08:17:03.737Z,19.30
2022-11-20T08:22:06.439Z,20.50
2022-11-20T08:27:09.224Z,26.40
2022-11-20T08:32:11.922Z,23.00
2022-11-20T08:37:14.723Z,22.30
2022-11-20T08:42:17.430Z,21.50
2022-11-20T08:47:20.122Z,22.60
2022-11-20T08:52:22.833Z,23.60
2022-11-20T08:57:25.512Z,26.70
2022-11-20T09:02:28.432Z,21.10
2022-11-20T09:07:31.479Z,23.40
2022-11-20T09:12:34.334Z,21.50
2022-11-20T09:17:37.037Z,22.90
2022-11-20T09:22:41.664Z,24.40
2022-11-20T09:27:46.692Z,24.60
2022-11-20T09:32:49.546Z,27.90
2022-11-20T09:37:52.549Z,26.60
2022-11-20T09:43:14.612Z,31.70
2022-11-20T09:48:54.766Z,28.60
2022-11-20T09:54:15.654Z,24.70
2022-11-20T09:59:35.156Z,30.60
2022-11-20T10:04:47.116Z,25.30
2022-11-20T10:09:56.079Z,31.10
2022-11-20T10:14:58.754Z,22.60
2022-11-20T10:20:20.286Z,26.80
2022-11-20T10:25:41.757Z,27.20
2022-11-20T10:30:46.988Z,23.80
2022-11-20T10:35:58.998Z,22.10
2022-11-20T10:41:23.101Z,21.10
2022-11-20T10:46:27.146Z,22.90
2022-11-20T10:51:47.048Z,28.60
2022-11-20T10:56:56.791Z,29.30
2022-11-20T11:02:02.650Z,23.20
2022-11-20T11:07:26.454Z,22.20
2022-11-20T11:12:29.997Z,28.80
2022-11-20T11:17:34.549Z,26.70
2022-11-20T11:22:46.394Z,24.10
2022-11-20T11:27:50.807Z,24.40
2022-11-20T11:33:05.582Z,20.90
2022-11-20T11:38:24.935Z,29.40
2022-11-20T11:43:49.857Z,33.10
2022-11-20T11:48:56.979Z,26.60
2022-11-20T11:54:02.007Z,29.80
2022-11-20T11:59:13.222Z,31.10
2022-11-20T12:04:29.665Z,27.10
2022-11-20T12:09:47.504Z,24.60
2022-11-20T12:14:53.682Z,28.60
2022-11-20T12:19:57.392Z,27.40
2022-11-20T12:25:26.328Z,29.50
2022-11-20T12:30:29.426Z,25.50
2022-11-20T12:36:00.488Z,23.30
2022-11-20T12:41:56.131Z,27.60
2022-11-20T12:47:28.812Z,28.90
2022-11-20T12:52:50.987Z,20.50
2022-11-20T12:57:53.892Z,28.20
2022-11-20T13:03:22.736Z,21.20
2022-11-20T13:08:34.305Z,25.80
2022-11-20T13:13:49.092Z,16.40
2022-11-20T13:18:52.200Z,19.60
2022-11-20T13:24:05.534Z,24.30
2022-11-20T13:29:19.793Z,23.20
2022-11-20T13:34:28.215Z,27.80
2022-11-20T13:39:34.224Z,19.10
2022-11-20T13:44:51.901Z,20.70
2022-11-20T13:49:58.061Z,19.80
2022-11-20T13:55:32.089Z,18.70
2022-11-20T14:00:44.314Z,25.90
2022-11-20T14:06:03.911Z,25.40
2022-11-20T14:11:22.277Z,20.60
2022-11-20T14:16:26.428Z,18.60
2022-11-20T14:21:30.676Z,23.10
2022-11-20T14:26:34.908Z,22.40
2022-11-20T14:31:37.638Z,24.50
2022-11-20T14:36:40.479Z,23.30
2022-11-20T14:41:51.994Z,19.80
2022-11-20T14:46:56.626Z,17.90
2022-11-20T14:52:11.597Z,26.60
2022-11-20T14:57:33.051Z,21.00
2022-11-20T15:02:40.055Z,20.40
2022-11-20T15:07:48.614Z,19.70
2022-11-20T15:13:15.737Z,21.60
2022-11-20T15:18:29.752Z,23.80
2022-11-20T15:23:32.508Z,16.20
2022-11-20T15:28:38.219Z,19.40
2022-11-20T15:33:41.081Z,18.50
2022-11-20T15:38:43.801Z,23.20
2022-11-20T15:43:46.804Z,21.80
2022-11-20T15:48:55.100Z,15.10
2022-11-20T15:53:58.987Z,18.60
2022-11-20T15:59:01.674Z,21.30
2022-11-20T16:04:06.718Z,18.00
2022-11-20T16:09:09.721Z,16.80
2022-11-20T16:14:31.266Z,15.60
2022-11-20T16:19:33.976Z,18.00
2022-11-20T16:24:36.653Z,18.00
2022-11-20T16:29:39.355Z,20.30
2022-11-20T16:34:42.027Z,17.20
2022-11-20T16:39:44.710Z,20.50
2022-11-20T16:44:47.970Z,16.90
2022-11-20T16:49:50.701Z,21.80
2022-11-20T16:54:53.462Z,21.00
2022-11-20T17:00:01.909Z,17.80
2022-11-20T17:05:25.077Z,15.00
2022-11-20T17:10:28.749Z,18.20
2022-11-20T17:15:31.698Z,22.20
2022-11-20T17:20:34.390Z,19.70
2022-11-20T17:25:37.298Z,16.50
2022-11-20T17:30:40.210Z,16.40
2022-11-20T17:35:43.010Z,19.90
2022-11-20T17:40:46.325Z,17.10
2022-11-20T17:45:49.007Z,18.70
2022-11-20T17:50:51.838Z,22.30
2022-11-20T17:56:17.319Z,28.20
2022-11-20T18:01:20.547Z,27.10
2022-11-20T18:06:25.870Z,12.80
2022-11-20T18:11:31.228Z,21.20
2022-11-20T18:16:38.998Z,26.40
2022-11-20T18:21:42.309Z,29.40
2022-11-20T18:26:45.405Z,19.00
2022-11-20T18:31:48.144Z,22.20
2022-11-20T18:36:51.031Z,24.40
2022-11-20T18:42:12.573Z,34.30
2022-11-20T18:47:40.272Z,22.80
2022-11-20T18:52:47.070Z,22.30
2022-11-20T18:57:49.737Z,34.10
2022-11-20T19:02:54.339Z,30.40
2022-11-20T19:07:57.195Z,22.70
2022-11-20T19:12:59.998Z,26.80
2022-11-20T19:18:02.797Z,26.30
2022-11-20T19:23:05.615Z,33.00
2022-11-20T19:28:08.299Z,33.40
2022-11-20T19:33:11.099Z,27.40
2022-11-20T19:38:13.796Z,26.60
2022-11-20T19:43:17.623Z,25.30
2022-11-20T19:48:20.312Z,25.00
2022-11-20T19:53:23.122Z,26.40
2022-11-20T19:58:27.955Z,21.40
2022-11-20T20:03:32.399Z,28.90
2022-11-20T20:08:35.808Z,24.70
2022-11-20T20:13:39.037Z,17.10
2022-11-20T20:18:42.048Z,30.50
2022-11-20T20:23:45.364Z,27.20
2022-11-20T20:28:48.313Z,27.00
2022-11-20T20:33:51.058Z,17.50
2022-11-20T20:38:55.919Z,21.90
2022-11-20T20:44:17.151Z,32.60
2022-11-20T20:49:20.023Z,34.00
2022-11-20T20:54:22.715Z,24.00
2022-11-20T20:59:25.857Z,24.50
2022-11-20T21:04:28.862Z,22.40
2022-11-20T21:09:31.580Z,20.80
2022-11-20T21:14:34.774Z,38.40
2022-11-20T21:19:37.472Z,32.10
2022-11-20T21:24:40.270Z,24.70
2022-11-20T21:29:42.967Z,26.80
2022-11-20T21:34:45.773Z,24.00
2022-11-20T21:39:51.974Z,33.80
2022-11-20T21:44:54.753Z,32.80
2022-11-20T21:49:57.434Z,28.90
2022-11-20T21:55:00.134Z,22.20
2022-11-20T22:00:05.085Z,21.70
2022-11-20T22:05:08.705Z,23.10
2022-11-20T22:10:18.126Z,33.10
2022-11-20T22:15:39.182Z,29.50
2022-11-20T22:20:44.127Z,25.50
2022-11-20T22:25:46.789Z,22.60
2022-11-20T22:30:49.558Z,28.90
2022-11-20T22:35:52.234Z,29.70
2022-11-20T22:41:00.997Z,28.00
2022-11-20T22:46:13.015Z,20.50
2022-11-20T22:51:17.228Z,27.80
2022-11-20T22:56:21.013Z,20.40
2022-11-20T23:01:26.318Z,32.00
2022-11-20T23:06:29.988Z,25.50
2022-11-20T23:11:33.058Z,20.30
2022-11-20T23:16:36.072Z,28.90
2022-11-20T23:21:40.714Z,29.10
2022-11-20T23:26:45.247Z,23.60
2022-11-20T23:31:48.058Z,23.50
2022-11-20T23:36:50.743Z,28.20
2022-11-20T23:41:53.556Z,27.10
2022-11-20T23:46:56.267Z,19.90
2022-11-20T23:51:58.945Z,21.80
2022-11-20T23:57:01.649Z,28.10
